Time;durP1;ratioP1;P1;durP2;ratioP2;P2;SDS_P1;SDS_P2;PMS_P1;PMS_P2;Temp;Humidity;BMP_temperature;BMP_pressure;BME280_temperature;BME280_humidity;BME280_pressure;Samples;Min_cycle;Max_cycle;Signal;HPM_P1;HPM_P2
2023/06/07 00:02:17;;;;;;;11.65;6.10;;;;;;;16.26;67.05;100773.66;10109658;29;20048;-76
2023/06/07 00:07:38;;;;;;;12.02;7.00;;;;;;;15.88;69.62;100780.13;10109867;29;20071;-77
2023/06/07 00:12:42;;;;;;;16.27;7.68;;;;;;;15.15;73.37;100777.16;10112697;29;20510;-76
2023/06/07 00:17:47;;;;;;;13.43;7.13;;;;;;;14.72;78.61;100784.69;10111898;29;20135;-76
2023/06/07 00:22:55;;;;;;;15.27;7.20;;;;;;;14.39;81.07;100780.53;10112413;29;20052;-76
2023/06/07 00:27:58;;;;;;;14.20;8.05;;;;;;;14.21;80.93;100780.34;10112523;29;20041;-76
2023/06/07 00:33:02;;;;;;;14.60;7.97;;;;;;;14.30;81.56;100782.22;10116931;29;20045;-77
2023/06/07 00:38:06;;;;;;;12.57;7.70;;;;;;;14.34;82.64;100780.06;10113865;29;20140;-76
2023/06/07 00:43:09;;;;;;;13.70;7.63;;;;;;;14.38;83.61;100781.53;10112977;29;20064;-76
2023/06/07 00:48:14;;;;;;;13.77;8.10;;;;;;;14.33;83.00;100776.53;10110788;29;20045;-77
2023/06/07 00:53:17;;;;;;;17.08;8.00;;;;;;;14.45;82.73;100779.97;10113966;29;20055;-77
2023/06/07 00:58:21;;;;;;;12.48;8.65;;;;;;;14.27;80.59;100779.78;10111358;29;20103;-78
2023/06/07 01:03:26;;;;;;;16.40;7.82;;;;;;;14.50;82.80;100798.50;10114988;29;20153;-77
2023/06/07 01:08:31;;;;;;;19.90;8.63;;;;;;;14.56;81.17;100781.69;10112119;29;20047;-78
2023/06/07 01:13:35;;;;;;;13.88;8.15;;;;;;;14.65;82.69;100783.59;10107803;29;20072;-77
2023/06/07 01:18:42;;;;;;;17.20;7.60;;;;;;;14.68;82.34;100786.00;10108189;29;20116;-78
2023/06/07 01:23:47;;;;;;;17.35;8.57;;;;;;;14.64;81.12;100781.84;10108596;29;20045;-77
2023/06/07 01:28:52;;;;;;;16.10;8.60;;;;;;;14.42;78.11;100776.72;10106691;29;20076;-76
2023/06/07 01:33:55;;;;;;;14.18;7.30;;;;;;;14.36;77.87;100778.94;10108524;29;20515;-76
2023/06/07 01:39:01;;;;;;;15.50;7.10;;;;;;;14.45;78.96;100787.25;10098880;29;20043;-76
2023/06/07 01:44:04;;;;;;;17.40;8.20;;;;;;;14.51;79.69;100792.09;10097039;29;20061;-76
2023/06/07 01:49:07;;;;;;;16.05;7.95;;;;;;;14.43;77.39;100787.41;10095774;29;20063;-77
2023/06/07 01:54:12;;;;;;;15.32;8.05;;;;;;;14.48;79.09;100792.34;10097701;29;20048;-77
2023/06/07 01:59:29;;;;;;;11.75;7.40;;;;;;;14.55;79.47;100788.13;10106066;29;20061;-77
2023/06/07 02:04:38;;;;;;;17.25;9.13;;;;;;;14.47;78.63;100790.66;10101001;29;20113;-77
2023/06/07 02:09:43;;;;;;;15.27;8.77;;;;;;;13.87;81.98;100780.66;10110944;29;20041;-77
2023/06/07 02:14:52;;;;;;;22.10;9.73;;;;;;;13.63;85.27;100775.59;10109342;29;20492;-76
2023/06/07 02:19:55;;;;;;;28.15;10.57;;;;;;;13.53;85.38;100777.38;10115914;29;20041;-76
2023/06/07 02:24:59;;;;;;;19.95;10.63;;;;;;;13.47;86.00;100775.22;10113199;29;20072;-76
2023/06/07 02:30:04;;;;;;;23.73;10.60;;;;;;;13.46;86.66;100771.66;10115952;29;20045;-76
2023/06/07 02:35:09;;;;;;;22.95;10.45;;;;;;;13.45;86.64;100772.66;10116211;29;20059;-76
2023/06/07 02:40:14;;;;;;;22.08;12.35;;;;;;;13.39;86.65;100767.78;10114916;29;20048;-77
2023/06/07 02:45:17;;;;;;;23.25;10.95;;;;;;;13.36;86.87;100769.88;10116346;29;20124;-77
2023/06/07 02:50:21;;;;;;;26.70;11.73;;;;;;;13.36;86.95;100775.28;10124193;29;20048;-77
2023/06/07 02:55:27;;;;;;;23.55;11.38;;;;;;;13.36;87.18;100777.97;10116362;29;20076;-77
2023/06/07 03:00:30;;;;;;;19.23;11.73;;;;;;;13.40;87.38;100774.88;10121435;29;20061;-77
2023/06/07 03:05:40;;;;;;;18.55;11.43;;;;;;;13.43;86.72;100780.00;10121841;29;20049;-78
2023/06/07 03:10:47;;;;;;;22.70;11.55;;;;;;;13.37;86.20;100785.09;10113090;29;20416;-77
2023/06/07 03:16:00;;;;;;;24.23;13.00;;;;;;;13.44;86.40;100791.69;10128144;29;20080;-78
2023/06/07 03:21:06;;;;;;;23.90;12.55;;;;;;;13.47;86.56;100788.72;10119480;29;20068;-75
2023/06/07 03:26:11;;;;;;;18.75;11.35;;;;;;;13.52;86.64;100783.78;10110471;29;20065;-77
2023/06/07 03:31:14;;;;;;;23.65;11.27;;;;;;;12.99;82.58;100789.19;10109929;29;20544;-75
2023/06/07 03:36:28;;;;;;;19.23;11.93;;;;;;;12.78;82.71;100800.84;10123903;29;20097;-76
2023/06/07 03:41:34;;;;;;;22.50;11.25;;;;;;;12.99;84.59;100789.19;10113196;29;20424;-76
2023/06/07 03:46:41;;;;;;;29.35;13.65;;;;;;;13.08;85.39;100798.34;10119298;29;20087;-76
2023/06/07 03:51:45;;;;;;;25.17;12.30;;;;;;;13.10;85.86;100791.00;10109654;29;20062;-75
2023/06/07 03:56:52;;;;;;;26.35;12.38;;;;;;;13.05;86.05;100786.88;10114175;29;20040;-77
2023/06/07 04:01:57;;;;;;;25.55;12.63;;;;;;;13.09;86.56;100797.38;10101408;29;20041;-76
2023/06/07 04:07:00;;;;;;;25.08;12.80;;;;;;;13.03;86.67;100796.91;10105826;29;20100;-76
2023/06/07 04:12:06;;;;;;;27.30;13.38;;;;;;;13.04;86.61;100795.06;10105793;29;20776;-76
2023/06/07 04:17:09;;;;;;;31.20;13.65;;;;;;;12.98;86.42;100796.44;10113533;29;20048;-75
2023/06/07 04:22:14;;;;;;;29.98;13.57;;;;;;;12.55;85.06;100793.78;10108214;29;20520;-76
2023/06/07 04:27:19;;;;;;;26.23;13.48;;;;;;;12.37;86.52;100812.34;10109634;29;20508;-77
2023/06/07 04:32:22;;;;;;;28.73;13.27;;;;;;;12.70;87.69;100806.00;10110623;29;20053;-76
2023/06/07 04:37:31;;;;;;;28.70;13.90;;;;;;;12.78;87.50;100802.66;10108322;29;20177;-75
2023/06/07 04:42:37;;;;;;;28.48;14.23;;;;;;;12.83;87.34;100811.22;10118272;29;20511;-77
2023/06/07 04:47:45;;;;;;;35.08;15.80;;;;;;;12.55;86.72;100797.34;10110837;29;20108;-77
2023/06/07 04:52:50;;;;;;;25.83;14.15;;;;;;;12.48;88.95;100788.06;10110949;29;20055;-77
2023/06/07 04:57:56;;;;;;;29.90;13.98;;;;;;;12.85;88.34;100800.31;10112485;29;20032;-75
2023/06/07 05:03:08;;;;;;;30.50;14.55;;;;;;;12.94;88.29;100802.22;10112852;29;20424;-75
2023/06/07 05:08:12;;;;;;;23.98;13.35;;;;;;;13.06;88.45;100801.19;10111158;29;20103;-77
2023/06/07 05:13:17;;;;;;;34.25;15.35;;;;;;;13.07;87.82;100800.19;10109922;29;20155;-75
2023/06/07 05:18:21;;;;;;;24.70;13.63;;;;;;;13.16;88.81;100814.72;10109406;29;20044;-77
2023/06/07 05:23:27;;;;;;;27.38;13.98;;;;;;;13.28;88.14;100819.94;10109656;29;20045;-77
2023/06/07 05:28:33;;;;;;;28.30;13.85;;;;;;;13.31;88.30;100817.97;10113194;29;20076;-75
2023/06/07 05:33:36;;;;;;;34.33;14.20;;;;;;;13.25;88.29;100822.06;10110259;29;20521;-75
2023/06/07 05:38:39;;;;;;;31.02;14.80;;;;;;;13.31;88.62;100821.53;10107790;29;20053;-76
2023/06/07 05:43:43;;;;;;;24.90;13.98;;;;;;;13.37;88.52;100817.47;10105939;29;20041;-76
2023/06/07 05:48:47;;;;;;;28.23;14.18;;;;;;;13.31;87.03;100834.16;10108276;29;20049;-77
2023/06/07 05:53:54;;;;;;;29.25;13.52;;;;;;;13.38;87.99;100836.22;10111316;29;20163;-76
2023/06/07 05:58:59;;;;;;;26.33;12.90;;;;;;;13.55;88.43;100837.50;10109258;29;20615;-76
2023/06/07 06:04:02;;;;;;;30.08;13.93;;;;;;;13.66;87.82;100832.00;10107771;29;20040;-76
2023/06/07 06:09:05;;;;;;;32.50;14.80;;;;;;;13.62;85.09;100841.34;10111338;29;20508;-76
2023/06/07 06:14:10;;;;;;;28.48;12.88;;;;;;;13.89;87.21;100826.44;10115598;29;20128;-76
2023/06/07 06:19:13;;;;;;;23.55;13.50;;;;;;;14.02;86.14;100839.72;10112563;29;20052;-76
2023/06/07 06:24:15;;;;;;;22.65;12.60;;;;;;;14.04;86.05;100837.72;10119082;29;20049;-76
2023/06/07 06:29:20;;;;;;;32.28;13.68;;;;;;;14.04;86.52;100845.81;10117051;29;20292;-77
2023/06/07 06:34:24;;;;;;;28.63;12.85;;;;;;;13.98;85.98;100841.81;10121404;29;20037;-76
2023/06/07 06:39:27;;;;;;;28.75;13.57;;;;;;;14.12;85.91;100854.97;10122248;29;20460;-77
2023/06/07 06:44:31;;;;;;;23.35;13.13;;;;;;;14.41;85.79;100856.94;10119830;29;20064;-76
2023/06/07 06:49:34;;;;;;;27.50;15.05;;;;;;;14.47;84.88;100855.53;10115910;29;20506;-76
2023/06/07 06:54:37;;;;;;;30.77;15.85;;;;;;;14.03;83.93;100855.78;10116477;29;20109;-77
2023/06/07 06:59:41;;;;;;;37.30;16.42;;;;;;;13.90;87.04;100856.03;10119273;29;20049;-77
2023/06/07 07:04:44;;;;;;;34.50;16.63;;;;;;;13.58;87.41;100864.22;10123748;29;20056;-77
2023/06/07 07:09:47;;;;;;;31.70;16.35;;;;;;;13.58;89.25;100868.75;10125346;29;20064;-76
2023/06/07 07:14:52;;;;;;;33.20;16.50;;;;;;;13.55;88.91;100866.28;10132222;29;20052;-74
2023/06/07 07:19:55;;;;;;;32.70;17.15;;;;;;;13.40;88.83;100873.88;10126827;29;20043;-76
2023/06/07 07:24:59;;;;;;;31.80;17.33;;;;;;;13.39;88.17;100872.19;10130355;29;20040;-76
2023/06/07 07:30:04;;;;;;;37.88;17.38;;;;;;;13.29;88.49;100888.25;10126874;29;20198;-76
2023/06/07 07:35:08;;;;;;;34.78;18.30;;;;;;;13.24;89.04;100896.72;10133036;29;20056;-76
2023/06/07 07:40:12;;;;;;;38.65;17.20;;;;;;;12.99;89.51;100895.22;10124109;28;20059;-75
2023/06/07 07:45:16;;;;;;;33.10;17.88;;;;;;;13.29;90.98;100877.47;10128848;28;20052;-75
2023/06/07 07:50:19;;;;;;;42.88;18.67;;;;;;;13.71;91.29;100870.28;10121354;28;20052;-75
2023/06/07 07:55:22;;;;;;;38.45;18.85;;;;;;;13.76;89.41;100885.19;10126822;28;20111;-76
2023/06/07 08:00:27;;;;;;;45.08;20.45;;;;;;;13.86;90.22;100897.78;10124132;29;20447;-75
2023/06/07 08:05:29;;;;;;;36.55;18.70;;;;;;;14.19;91.24;100879.59;10119926;29;20048;-75
2023/06/07 08:10:33;;;;;;;34.40;18.95;;;;;;;14.32;90.12;100891.03;10121771;29;20052;-74
2023/06/07 08:15:37;;;;;;;33.00;19.02;;;;;;;14.58;90.92;100887.84;10126067;28;20063;-75
2023/06/07 08:20:40;;;;;;;34.50;18.58;;;;;;;14.71;90.09;100893.03;10121001;28;20052;-75
2023/06/07 08:25:43;;;;;;;34.92;18.90;;;;;;;14.57;89.37;100887.00;10120845;29;20430;-75
2023/06/07 08:30:48;;;;;;;39.92;20.02;;;;;;;14.49;89.25;100888.69;10120221;29;20048;-75
2023/06/07 08:35:51;;;;;;;31.17;17.33;;;;;;;14.60;89.76;100886.72;10122196;29;20056;-75
2023/06/07 08:40:55;;;;;;;34.08;17.17;;;;;;;14.58;87.88;100866.22;10124005;28;20052;-74
2023/06/07 08:46:04;;;;;;;31.02;18.98;;;;;;;14.88;89.64;100881.50;10126104;29;20048;-74
2023/06/07 08:51:09;;;;;;;40.83;19.30;;;;;;;14.85;86.55;100886.34;10140082;29;20503;-75
2023/06/07 08:56:13;;;;;;;30.38;17.65;;;;;;;14.90;88.32;100879.53;10123496;29;20056;-75
2023/06/07 09:01:23;;;;;;;37.33;19.73;;;;;;;15.09;88.66;100880.56;10115264;29;20118;-75
2023/06/07 09:06:27;;;;;;;39.45;18.65;;;;;;;15.38;87.48;100884.13;10117976;29;20435;-75
2023/06/07 09:11:30;;;;;;;32.83;17.50;;;;;;;15.87;87.78;100893.00;10116514;29;20051;-76
2023/06/07 09:16:52;;;;;;;31.45;16.17;;;;;;;16.76;86.06;100895.25;10117568;29;20052;-76
2023/06/07 09:21:57;;;;;;;27.80;15.32;;;;;;;18.25;84.20;100884.59;10112979;29;20527;-76
2023/06/07 09:27:02;;;;;;;25.98;13.20;;;;;;;19.48;78.67;100893.94;10120309;29;20043;-76
2023/06/07 09:32:19;;;;;;;25.23;13.60;;;;;;;19.76;75.94;100880.84;10121408;29;20044;-76
2023/06/07 09:37:22;;;;;;;24.95;14.70;;;;;;;20.29;75.81;100886.66;10118061;29;20052;-75
2023/06/07 09:42:25;;;;;;;23.23;13.57;;;;;;;20.88;67.96;100876.19;10117374;29;20526;-77
2023/06/07 09:47:29;;;;;;;22.77;13.10;;;;;;;21.62;64.31;100870.16;10122813;29;20684;-76
2023/06/07 09:52:32;;;;;;;22.38;14.00;;;;;;;21.16;68.77;100868.31;10117541;29;20404;-77
2023/06/07 09:57:37;;;;;;;23.05;13.48;;;;;;;21.12;72.79;100871.63;10115912;29;20052;-74
2023/06/07 10:02:43;;;;;;;24.77;15.13;;;;;;;21.26;68.00;100868.09;10117389;29;20041;-75
2023/06/07 10:07:47;;;;;;;24.08;13.98;;;;;;;21.43;71.20;100868.81;10120907;28;20131;-73
2023/06/07 10:12:52;;;;;;;26.15;13.93;;;;;;;21.82;66.83;100868.63;10113313;29;20048;-73
2023/06/07 10:18:00;;;;;;;28.55;13.25;;;;;;;22.45;60.00;100865.53;10106483;29;21201;-75
2023/06/07 10:23:05;;;;;;;20.15;12.73;;;;;;;22.78;65.38;100875.00;10123167;28;20175;-74
2023/06/07 10:28:15;;;;;;;23.58;13.13;;;;;;;22.44;64.51;100861.97;10127779;28;20067;-73
2023/06/07 10:33:20;;;;;;;23.27;13.70;;;;;;;22.59;64.70;100867.41;10122841;29;20160;-73
2023/06/07 10:38:24;;;;;;;16.27;12.77;;;;;;;23.93;61.42;100861.34;10121099;29;20542;-72
2023/06/07 10:43:29;;;;;;;18.00;12.82;;;;;;;24.98;60.70;100866.50;10109340;29;20052;-73
2023/06/07 10:48:34;;;;;;;20.75;12.93;;;;;;;25.25;57.11;100860.22;10109596;29;20048;-73
2023/06/07 10:53:52;;;;;;;19.52;11.77;;;;;;;24.40;54.97;100862.47;10115100;29;20052;-74
2023/06/07 10:58:55;;;;;;;16.63;11.75;;;;;;;24.13;55.68;100855.97;10115065;29;20040;-73
2023/06/07 11:04:00;;;;;;;20.48;12.30;;;;;;;23.60;54.61;100851.78;10119214;29;20153;-73
2023/06/07 11:09:20;;;;;;;20.00;12.23;;;;;;;23.09;54.81;100845.59;10116988;29;21706;-73
2023/06/07 11:14:23;;;;;;;16.58;11.60;;;;;;;22.63;57.84;100848.72;10120587;29;20059;-74
2023/06/07 11:19:53;;;;;;;16.33;10.77;;;;;;;22.19;57.73;100847.72;10116607;29;20183;-75
2023/06/07 11:25:12;;;;;;;21.10;12.00;;;;;;;21.70;56.82;100858.31;10119136;29;20132;-73
2023/06/07 11:30:16;;;;;;;19.33;11.82;;;;;;;21.79;58.35;100860.78;10118147;29;20047;-73
2023/06/07 11:35:21;;;;;;;18.77;11.00;;;;;;;21.86;57.52;100856.28;10119943;29;20476;-73
2023/06/07 11:40:23;;;;;;;21.55;11.20;;;;;;;21.96;57.47;100855.16;10117990;29;20415;-74
2023/06/07 11:45:26;;;;;;;15.93;10.52;;;;;;;21.99;56.82;100846.56;10087727;28;20053;-74
2023/06/07 11:50:31;;;;;;;22.00;10.88;;;;;;;21.91;57.65;100847.50;10076772;29;20429;-74
2023/06/07 11:55:37;;;;;;;17.17;10.52;;;;;;;21.72;56.87;100842.56;10075074;29;20081;-74
2023/06/07 12:00:43;;;;;;;20.15;10.15;;;;;;;21.70;56.44;100850.97;10074530;29;20064;-74
2023/06/07 12:05:49;;;;;;;22.10;11.48;;;;;;;21.49;57.31;100848.94;10076215;29;20052;-74
2023/06/07 12:10:53;;;;;;;19.95;11.63;;;;;;;21.32;56.58;100841.91;10075703;29;20513;-75
2023/06/07 12:15:58;;;;;;;21.92;11.05;;;;;;;21.32;56.69;100840.03;10076514;28;20045;-74
2023/06/07 12:21:04;;;;;;;20.58;11.15;;;;;;;21.64;56.63;100825.22;10064940;29;20071;-74
2023/06/07 12:26:08;;;;;;;25.92;11.60;;;;;;;22.01;55.02;100819.88;10072852;29;20111;-75
2023/06/07 12:31:16;;;;;;;17.98;10.20;;;;;;;22.34;54.15;100812.94;10073413;29;20063;-75
2023/06/07 12:36:21;;;;;;;15.88;9.88;;;;;;;22.69;52.23;100807.72;10067070;29;20243;-74
2023/06/07 12:41:27;;;;;;;25.52;10.45;;;;;;;22.74;51.69;100809.88;10071332;29;20052;-74
2023/06/07 12:46:31;;;;;;;21.90;10.00;;;;;;;22.49;52.63;100807.50;10071899;29;20052;-74
2023/06/07 12:51:36;;;;;;;18.55;10.15;;;;;;;22.47;53.47;100811.47;10070618;29;20052;-74
2023/06/07 12:56:39;;;;;;;21.65;10.25;;;;;;;22.45;53.17;100802.59;10072466;29;20128;-75
2023/06/07 13:01:42;;;;;;;24.55;10.40;;;;;;;22.59;52.81;100798.13;10076670;29;20535;-75
2023/06/07 13:06:46;;;;;;;21.63;10.35;;;;;;;22.95;52.60;100792.59;10085040;29;20056;-75
2023/06/07 13:11:49;;;;;;;16.80;8.93;;;;;;;24.30;49.99;100791.47;10079509;29;20053;-75
2023/06/07 13:16:52;;;;;;;16.95;9.38;;;;;;;25.40;47.27;100787.47;10079616;29;20056;-74
2023/06/07 13:21:56;;;;;;;21.50;10.10;;;;;;;25.68;46.67;100778.13;10077521;29;20581;-74
2023/06/07 13:26:59;;;;;;;14.82;8.95;;;;;;;26.24;45.03;100777.53;10079580;29;20063;-74
2023/06/07 13:32:02;;;;;;;18.48;9.75;;;;;;;25.89;45.44;100774.28;10079813;29;21282;-76
2023/06/07 13:37:07;;;;;;;15.23;9.00;;;;;;;25.47;46.67;100781.94;10080666;29;20724;-76
2023/06/07 13:42:10;;;;;;;13.15;7.47;;;;;;;25.48;46.83;100769.91;10079142;29;20060;-76
2023/06/07 13:47:13;;;;;;;15.63;8.80;;;;;;;25.23;47.14;100761.44;10086108;29;20059;-78
2023/06/07 13:52:17;;;;;;;14.25;7.32;;;;;;;25.21;47.17;100760.00;10086792;29;20539;-77
2023/06/07 13:57:20;;;;;;;17.38;8.10;;;;;;;25.38;47.55;100752.97;10084998;29;21524;-77
2023/06/07 14:02:23;;;;;;;11.90;7.43;;;;;;;26.23;45.33;100750.22;10085901;29;20048;-76
2023/06/07 14:07:27;;;;;;;14.30;7.97;;;;;;;26.18;45.13;100742.59;10084582;29;20161;-77
2023/06/07 14:12:30;;;;;;;14.48;8.05;;;;;;;26.20;45.58;100723.97;10083986;29;20052;-76
2023/06/07 14:17:33;;;;;;;9.88;5.65;;;;;;;26.49;44.98;100727.22;10085213;29;20060;-76
2023/06/07 14:22:37;;;;;;;11.80;6.32;;;;;;;26.24;42.78;100722.47;10078874;29;20056;-76
2023/06/07 14:27:42;;;;;;;10.75;5.28;;;;;;;25.36;42.80;100714.69;10077868;29;20083;-77
2023/06/07 14:32:45;;;;;;;10.68;6.22;;;;;;;25.02;44.18;100720.44;10075643;29;20464;-77
2023/06/07 14:37:49;;;;;;;14.13;6.53;;;;;;;25.25;44.52;100714.50;10081396;29;20653;-76
2023/06/07 14:42:52;;;;;;;8.48;4.80;;;;;;;26.36;41.04;100711.63;10086130;29;20049;-77
2023/06/07 14:47:55;;;;;;;10.25;5.50;;;;;;;26.78;40.88;100706.47;10086312;29;20416;-76
2023/06/07 14:52:59;;;;;;;7.88;5.32;;;;;;;27.14;39.08;100700.22;10084664;29;21306;-75
2023/06/07 14:58:04;;;;;;;9.93;6.63;;;;;;;27.63;39.31;100705.06;10086588;29;20065;-76
2023/06/07 15:03:07;;;;;;;13.60;6.10;;;;;;;27.14;39.70;100703.00;10087273;29;20056;-75
2023/06/07 15:08:11;;;;;;;16.25;5.75;;;;;;;27.83;39.69;100695.47;10084259;29;20069;-76
2023/06/07 15:13:14;;;;;;;8.15;4.88;;;;;;;28.71;37.51;100699.56;10082555;29;20060;-76
2023/06/07 15:18:17;;;;;;;64.95;9.25;;;;;;;27.36;38.94;100692.38;10083291;29;20053;-76
2023/06/07 15:23:21;;;;;;;10.35;5.47;;;;;;;26.28;40.25;100695.38;10082340;29;20152;-76
2023/06/07 15:28:24;;;;;;;11.27;5.57;;;;;;;25.85;41.22;100693.22;10082004;29;20059;-75
2023/06/07 15:33:27;;;;;;;13.57;6.45;;;;;;;27.12;39.51;100685.81;10079630;29;20052;-76
2023/06/07 15:38:37;;;;;;;9.27;6.32;;;;;;;27.43;39.75;100686.84;10079469;29;20061;-75
2023/06/07 15:43:42;;;;;;;13.00;6.40;;;;;;;27.73;39.54;100677.75;10079690;29;20060;-76
2023/06/07 15:48:50;;;;;;;13.70;5.90;;;;;;;27.94;39.14;100660.72;10079429;29;20049;-76
2023/06/07 15:53:54;;;;;;;9.20;5.57;;;;;;;27.77;39.07;100666.03;10079261;29;20537;-75
2023/06/07 15:58:57;;;;;;;11.95;6.30;;;;;;;28.11;38.71;100655.41;10080950;29;20484;-75
2023/06/07 16:04:00;;;;;;;12.20;6.43;;;;;;;28.38;38.52;100655.03;10079464;29;20627;-74
2023/06/07 16:09:08;;;;;;;12.80;6.47;;;;;;;29.00;37.05;100640.84;10078393;29;20048;-77
2023/06/07 16:14:11;;;;;;;10.35;5.63;;;;;;;28.46;38.31;100654.69;10081907;29;21277;-77
2023/06/07 16:19:14;;;;;;;14.68;6.30;;;;;;;27.45;39.31;100646.03;10075429;29;20104;-76
2023/06/07 16:24:19;;;;;;;11.43;5.95;;;;;;;27.03;40.28;100645.00;10074404;29;20060;-76
2023/06/07 16:29:21;;;;;;;9.48;6.28;;;;;;;26.09;41.86;100653.09;10077814;29;20051;-76
2023/06/07 16:34:24;;;;;;;12.85;6.97;;;;;;;26.98;41.19;100640.16;10078986;29;20496;-76
2023/06/07 16:39:29;;;;;;;9.60;5.47;;;;;;;28.08;38.94;100635.72;10073432;29;20052;-77
2023/06/07 16:44:32;;;;;;;12.23;6.07;;;;;;;28.32;38.99;100628.34;10072104;29;20060;-74
2023/06/07 16:49:35;;;;;;;8.93;5.85;;;;;;;27.82;39.54;100637.75;10076203;29;20433;-74
2023/06/07 16:54:39;;;;;;;10.48;5.75;;;;;;;28.67;38.82;100633.97;10076977;29;20061;-74
2023/06/07 16:59:42;;;;;;;8.95;5.82;;;;;;;30.92;35.70;100621.94;10070338;29;20045;-74
2023/06/07 17:04:45;;;;;;;10.73;5.47;;;;;;;33.33;32.37;100616.97;10074913;29;20507;-74
2023/06/07 17:09:49;;;;;;;11.57;5.57;;;;;;;34.23;30.65;100615.88;10077757;29;20085;-74
2023/06/07 17:14:52;;;;;;;9.50;5.10;;;;;;;34.99;29.48;100610.28;10080247;29;20041;-74
2023/06/07 17:19:55;;;;;;;8.43;5.30;;;;;;;36.15;28.09;100612.88;10082197;29;20617;-74
2023/06/07 17:24:59;;;;;;;9.75;5.00;;;;;;;37.00;27.11;100613.56;10080374;29;20056;-74
2023/06/07 17:30:02;;;;;;;7.65;4.95;;;;;;;37.09;26.87;100608.16;10080297;29;20524;-73
2023/06/07 17:35:06;;;;;;;6.80;4.80;;;;;;;36.84;27.26;100607.31;10084426;29;20059;-73
2023/06/07 17:40:11;;;;;;;26.27;5.68;;;;;;;35.37;28.15;100602.38;10086612;29;20512;-73
2023/06/07 17:45:15;;;;;;;9.48;5.57;;;;;;;34.21;29.62;100605.03;10092826;29;20463;-73
2023/06/07 17:50:18;;;;;;;12.18;5.85;;;;;;;30.81;33.37;100609.84;10089326;29;20052;-73
2023/06/07 17:55:44;;;;;;;9.82;5.00;;;;;;;27.49;39.16;100613.34;10087768;29;20048;-73
2023/06/07 18:00:47;;;;;;;10.95;5.70;;;;;;;26.00;42.06;100621.38;10089750;29;20490;-73
2023/06/07 18:05:50;;;;;;;10.63;6.13;;;;;;;25.02;43.97;100633.31;10086370;29;20127;-73
2023/06/07 18:10:54;;;;;;;10.25;6.35;;;;;;;24.35;45.44;100628.88;10085231;29;20056;-73
2023/06/07 18:15:57;;;;;;;8.23;5.63;;;;;;;23.93;47.61;100629.00;10083966;29;20044;-73
2023/06/07 18:21:00;;;;;;;7.90;5.57;;;;;;;23.59;48.12;100627.16;10085697;29;20059;-73
2023/06/07 18:26:06;;;;;;;10.95;5.93;;;;;;;23.38;49.78;100625.38;10083595;29;20052;-73
2023/06/07 18:31:09;;;;;;;8.82;6.05;;;;;;;23.12;49.71;100623.31;10084434;29;20182;-73
2023/06/07 18:36:12;;;;;;;8.68;5.50;;;;;;;22.89;50.33;100629.03;10086969;29;20063;-73
2023/06/07 18:41:17;;;;;;;10.48;6.03;;;;;;;22.52;51.46;100623.72;10087157;29;20059;-74
2023/06/07 18:46:20;;;;;;;11.23;6.97;;;;;;;22.23;51.43;100627.38;10088865;29;20120;-76
2023/06/07 18:51:23;;;;;;;10.52;6.18;;;;;;;21.68;54.02;100617.91;10083668;29;21663;-74
2023/06/07 18:56:27;;;;;;;13.65;6.53;;;;;;;21.35;55.45;100621.06;10092144;29;20052;-75
2023/06/07 19:01:30;;;;;;;7.72;5.50;;;;;;;21.20;56.13;100623.81;10089397;29;20552;-74
2023/06/07 19:06:54;;;;;;;10.23;6.25;;;;;;;20.97;56.20;100612.94;10091279;29;20424;-75
2023/06/07 19:11:59;;;;;;;7.68;6.22;;;;;;;20.83;56.07;100623.84;10088450;29;21462;-74
2023/06/07 19:17:02;;;;;;;10.00;6.32;;;;;;;20.78;55.38;100618.94;10092355;29;20602;-74
2023/06/07 19:22:07;;;;;;;8.50;6.20;;;;;;;20.70;55.03;100617.13;10093560;29;20060;-74
2023/06/07 19:27:12;;;;;;;9.07;5.90;;;;;;;20.62;55.61;100624.56;10087642;29;20055;-74
2023/06/07 19:32:16;;;;;;;9.68;6.20;;;;;;;20.45;55.89;100621.97;10092378;29;21197;-74
2023/06/07 19:37:19;;;;;;;9.27;5.97;;;;;;;20.22;56.31;100619.22;10090103;29;20059;-74
2023/06/07 19:42:24;;;;;;;10.93;6.25;;;;;;;20.02;56.77;100626.19;10089568;29;20053;-73
2023/06/07 19:47:28;;;;;;;8.80;6.35;;;;;;;19.63;58.08;100636.09;10110259;28;20697;-73
2023/06/07 19:52:31;;;;;;;8.13;6.18;;;;;;;19.13;59.59;100640.00;10091325;29;20135;-74
2023/06/07 19:57:35;;;;;;;11.73;6.50;;;;;;;19.17;59.86;100656.84;10092559;29;20131;-73
2023/06/07 20:02:41;;;;;;;10.85;7.65;;;;;;;19.12;60.56;100645.66;10087446;29;20049;-73
2023/06/07 20:07:44;;;;;;;13.98;7.45;;;;;;;19.41;60.16;100654.03;10085636;29;20051;-73
2023/06/07 20:12:48;;;;;;;10.27;7.65;;;;;;;19.59;59.50;100659.31;10087724;29;20052;-75
2023/06/07 20:17:51;;;;;;;15.55;7.35;;;;;;;19.59;59.75;100664.75;10085601;29;20045;-77
2023/06/07 20:22:54;;;;;;;11.52;8.40;;;;;;;19.49;60.19;100669.50;10085129;29;20049;-76
2023/06/07 20:27:58;;;;;;;11.65;7.03;;;;;;;19.28;60.73;100664.66;10087346;29;20064;-75
2023/06/07 20:33:01;;;;;;;9.30;7.18;;;;;;;19.10;60.82;100670.31;10086778;29;20041;-75
2023/06/07 20:38:04;;;;;;;10.05;8.10;;;;;;;19.02;61.26;100662.16;10086677;29;20083;-76
2023/06/07 20:43:09;;;;;;;12.82;8.52;;;;;;;18.94;61.41;100670.34;10084726;29;20476;-76
2023/06/07 20:48:11;;;;;;;14.65;9.27;;;;;;;18.92;61.27;100669.66;10084095;29;20059;-77
2023/06/07 20:53:15;;;;;;;13.57;9.20;;;;;;;18.88;61.46;100674.59;10080410;29;20055;-78
2023/06/07 20:58:21;;;;;;;14.63;10.35;;;;;;;18.82;61.89;100669.84;10085095;29;20052;-77
2023/06/07 21:03:24;;;;;;;12.95;9.15;;;;;;;18.72;62.00;100664.53;10082238;29;20436;-78
2023/06/07 21:08:28;;;;;;;15.20;8.52;;;;;;;18.67;62.06;100666.91;10082245;29;20049;-77
2023/06/07 21:13:32;;;;;;;16.30;9.15;;;;;;;18.63;61.99;100665.56;10083753;29;20060;-77
2023/06/07 21:18:35;;;;;;;11.95;8.73;;;;;;;18.61;61.93;100666.75;10083274;29;20056;-77
2023/06/07 21:23:38;;;;;;;20.65;11.57;;;;;;;18.56;61.84;100673.56;10084936;29;20052;-75
2023/06/07 21:28:42;;;;;;;19.52;11.27;;;;;;;18.55;61.58;100674.59;10084633;29;20109;-78
2023/06/07 21:33:57;;;;;;;20.50;12.63;;;;;;;18.48;61.49;100678.13;10085231;29;20564;-76
2023/06/07 21:39:00;;;;;;;14.57;9.68;;;;;;;18.49;61.53;100669.81;10075514;29;20302;-76
2023/06/07 21:44:04;;;;;;;18.30;9.07;;;;;;;18.42;61.14;100674.22;10150999;29;20092;-76
2023/06/07 21:49:07;;;;;;;15.65;8.75;;;;;;;18.33;61.22;100669.81;10152537;29;20079;-77
2023/06/07 21:54:10;;;;;;;17.13;8.50;;;;;;;18.22;61.18;100673.69;10150569;29;20036;-77
2023/06/07 21:59:15;;;;;;;22.42;9.95;;;;;;;18.13;61.09;100674.72;10152072;29;20052;-77
2023/06/07 22:04:18;;;;;;;15.55;8.98;;;;;;;17.99;61.03;100673.50;10151878;29;20044;-76
2023/06/07 22:09:22;;;;;;;16.88;10.23;;;;;;;17.92;61.04;100680.56;10136420;29;20416;-77
2023/06/07 22:14:28;;;;;;;16.75;7.78;;;;;;;17.84;60.92;100684.09;10114446;29;20394;-76
2023/06/07 22:19:31;;;;;;;17.98;9.73;;;;;;;17.77;60.41;100680.34;10118270;29;20669;-77
2023/06/07 22:24:34;;;;;;;13.88;8.57;;;;;;;17.69;60.17;100677.63;10116385;29;20183;-75
2023/06/07 22:29:42;;;;;;;22.88;8.88;;;;;;;17.58;59.80;100675.16;10114342;29;20043;-76
2023/06/07 22:34:46;;;;;;;11.85;7.40;;;;;;;17.58;59.47;100688.75;10128461;29;20040;-77
2023/06/07 22:39:48;;;;;;;13.77;7.53;;;;;;;17.51;58.74;100685.00;10129402;29;20412;-76
2023/06/07 22:44:53;;;;;;;10.93;7.50;;;;;;;17.47;59.03;100693.47;10125954;29;20036;-76
2023/06/07 22:49:56;;;;;;;12.57;7.25;;;;;;;17.36;59.18;100696.47;10123170;29;20045;-75
2023/06/07 22:54:59;;;;;;;14.43;7.78;;;;;;;17.24;59.06;100693.16;10121680;29;20040;-76
2023/06/07 23:00:09;;;;;;;15.80;8.35;;;;;;;17.16;59.42;100703.97;10115061;29;20429;-76